EFSI/SJY METAR and TAF weather

Enter ICAO airport designator
Station Type Date Time Source
EFSI METAR 2019/10/18 07:20 UTC NOAA

EFSI 180720Z AUTO 15004KT 110V180 7000 OVC002 04/04 Q1010


Station Type Date Time Source
EFSI Decoded METAR 2019/10/18 07:20 UTC NOAA

Seinajoki-Ilmajok, Finland (EFSI) 62-41-37N 022-49-55E
Oct 18, 2019 - 03:20 AM EDT / 2019.10.18 0720 UTC
Wind: from the SSE (150 degrees) at 5 MPH (4 KT) (direction variable):0
Visibility: 4 mile(s):0
Sky conditions: overcast
Temperature: 39 F (4 C)
Dew Point: 39 F (4 C)
Relative Humidity: 100%
Pressure (altimeter): 29.83 in. Hg (1010 hPa)
ob: EFSI 180720Z AUTO 15004KT 110V180 7000 OVC002 04/04 Q1010
cycle: 7

Station Type Date Time Source
EFSI TAF 2012/03/06 09:42 UTC NOAA

TAF EFSI 060830Z 0609/0621 12003KT CAVOK

Example: see airport list